Flight Track Log - Related Links

Times and Time Zones

All times are in EDT time to prevent confusion due to time zone crossing. See the EGF4247 flight status page for this flight to view local times or setup timezone preferences in your user account.

Time Position Orientation Groundspeed Altitude Reporting Facility
EDT Latitude Longitude Course Direction KTS MPH feet Rate Location/Type
Tue 15:57:10 42.9333 -78.7500 270° West 164 189 1,300  Level Buffalo TRACON
Tue 15:57:46 42.9000 -78.7667 200° South 171 197 2,400 2,235 Climbing Buffalo TRACON
Tue 15:58:52 42.9000 -78.8333 270° West 204 235 5,100 2,190 Climbing Buffalo TRACON
Tue 15:59:00 42.9500 -79.0562 270° West  Level FlightAware Approximate
Tue 15:59:52 42.9167 -78.9167 285° West 211 243 7,000  Level Buffalo TRACON
Tue 16:00:00 42.9586 -79.1696 277° West  Level FlightAware Approximate
Tue 16:00:52 42.9167 -79.0000 270° West 260 299 9,000  Level Buffalo TRACON
Tue 16:01:00 42.9667 -79.2830 270° West  Level FlightAware Approximate
Tue 16:01:52 42.9333 -79.1000 283° West 260 299 11,100  Level Buffalo TRACON
Tue 16:02:00 42.9667 -79.3971 270° West  Level FlightAware Approximate
Tue 16:02:52 42.9333 -79.2167 270° West 292 336 12,400  Level Buffalo TRACON
Tue 16:03:52 42.9500 -79.3167 283° West 308 354 14,100 1,850 Climbing Buffalo TRACON
Tue 16:04:52 42.9500 -79.4333 270° West 305 351 16,100 1,650 Climbing Buffalo TRACON
Tue 16:05:52 42.9500 -79.5500 270° West 301 346 17,400 1,650 Climbing Buffalo TRACON
Tue 16:06:52 42.9667 -79.6667 281° West 306 352 19,400 2,050 Climbing Buffalo TRACON
Tue 16:07:52 42.9667 -79.7833 270° West 292 336 21,500 1,600 Climbing Buffalo TRACON
Tue 16:08:52 42.9833 -79.8833 283° West 292 336 22,600 1,450 Climbing Buffalo TRACON
Tue 16:09:52 42.9833 -80.0000 270° West 305 351 24,400 1,700 Climbing Buffalo TRACON
Tue 16:10:52 42.9833 -80.1000 270° West 282 325 26,000 1,742 Climbing Buffalo TRACON
Tue 16:11:56 43.0167 -80.1833 299° West 270 311 28,000 1,839 Climbing Toronto Center
Tue 16:12:56 43.0333 -80.3000 281° West 260 299 29,800 1,400 Climbing Toronto Center
Tue 16:13:56 43.0500 -80.3833 285° West 260 299 30,800 992 Climbing Toronto Center
Tue 16:14:57 43.0667 -80.4833 283° West 270 311 31,800 600 Climbing Toronto Center
Tue 16:15:56 43.0667 -80.5833 270° West 300 345 32,000 101 Climbing Toronto Center
Tue 16:16:56 43.0667 -80.7333 270° West 340 391 32,000  Level Toronto Center
Tue 16:17:56 43.0500 -80.8500 259° West 340 391 32,000  Level Toronto Center
Tue 16:18:56 43.0500 -80.9833 270° West 340 391 32,000  Level Toronto Center
Tue 16:19:56 43.0500 -81.1167 270° West 350 403 32,000  Level Toronto Center
Tue 16:20:56 43.0333 -81.2500 260° West 350 403 32,000  Level Toronto Center
Tue 16:21:56 43.0333 -81.3833 270° West 350 403 32,000  Level Toronto Center
Tue 16:22:56 43.0333 -81.5333 270° West 350 403 32,000  Level Toronto Center
Tue 16:23:56 43.0333 -81.6667 270° West 350 403 32,000  Level Toronto Center
Tue 16:24:56 43.0333 -81.8000 270° West 350 403 32,000  Level Toronto Center
Tue 16:25:56 43.0167 -81.9333 260° West 350 403 32,000  Level Toronto Center
Tue 16:26:56 43.0167 -82.0500 270° West 350 403 32,000  Level Toronto Center
Tue 16:27:56 43.0167 -82.2167 270° West 350 403 32,000  Level Toronto Center
Tue 16:28:56 43.0167 -82.3167 270° West 360 414 32,000  Level Toronto Center
Tue 16:29:56 43.0167 -82.4833 270° West 360 414 32,000  Level Toronto Center
Tue 16:30:56 43.0167 -82.6000 270° West 360 414 32,000  Level Toronto Center
Tue 16:31:31 43.0119 -82.6956 266° West 367 422 32,000  Level Cleveland Center
Tue 16:32:31 43.0053 -82.8289 266° West 367 422 32,000  Level Cleveland Center
Tue 16:33:31 43.0006 -82.9622 267° West 367 422 32,000  Level Cleveland Center
Tue 16:34:31 42.9933 -83.0953 266° West 367 422 32,000  Level Cleveland Center
Tue 16:35:31 42.9883 -83.2314 267° West 367 422 32,000  Level Cleveland Center
Tue 16:36:31 42.9831 -83.3703 267° West 367 422 32,000  Level Cleveland Center
Tue 16:37:31 42.9775 -83.5061 267° West 367 422 32,000  Level Cleveland Center
Tue 16:38:31 42.9719 -83.6450 267° West 367 422 32,000  Level Cleveland Center
Tue 16:39:31 42.9639 -83.7808 265° West 367 422 32,000  Level Cleveland Center
Tue 16:40:31 42.9497 -83.9219 262° West 367 422 32,000  Level Cleveland Center
Tue 16:41:31 42.9350 -84.0600 262° West 367 422 32,000  Level Cleveland Center
Tue 16:42:31 42.9203 -84.2011 262° West 367 422 32,000  Level Cleveland Center
Tue 16:43:32 42.9106 -84.3167 263° West 376 433 32,000  Level Chicago Center
Tue 16:44:34 42.8964 -84.4578 262° West 377 434 32,000  Level Chicago Center
Tue 16:45:36 42.8792 -84.6286 262° West 379 436 32,000  Level Chicago Center
Tue 16:46:38 42.8656 -84.7728 263° West 382 440 32,000  Level Chicago Center
Tue 16:47:40 42.8497 -84.9161 261° West 384 442 32,000  Level Chicago Center
Tue 16:48:42 42.8342 -85.0581 262° West 380 437 32,000 -48 Level Chicago Center
Tue 16:49:44 42.8192 -85.1981 262° West 376 433 31,900 -871 Descending Chicago Center
Tue 16:50:46 42.8039 -85.3378 262° West 373 429 30,200 -1,984 Descending Chicago Center
Tue 16:51:48 42.7839 -85.5108 261° West 381 438 27,800 -2,129 Descending Chicago Center
Tue 16:52:50 42.7581 -85.6561 256° West 390 449 25,800 -1,935 Descending Chicago Center
Tue 16:53:52 42.7297 -85.8069 256° West 403 464 23,800 -1,984 Descending Chicago Center
Tue 16:54:54 42.7039 -85.9561 257° West 403 464 21,700 -1,584 Descending Chicago Center
Tue 16:55:57 42.6769 -86.0992 256° West 395 455 20,500 -816 Descending Chicago Center
Tue 16:56:59 42.6533 -86.2322 256° West 369 425 20,000 -823 Descending Chicago Center
Tue 16:58:01 42.6289 -86.3592 255° West 350 403 18,800 -2,032 Descending Chicago Center
Tue 16:59:03 42.6008 -86.5094 256° West 343 395 15,800 -2,274 Descending Chicago Center
Tue 17:00:05 42.5775 -86.6308 255° West 335 386 14,100 -1,306 Descending Chicago Center
Tue 17:01:07 42.5528 -86.7592 255° West 347 399 13,100 -968 Descending Chicago Center
Tue 17:02:09 42.5189 -86.8839 250° West 356 410 12,100 -968 Descending Chicago Center
Tue 17:03:11 42.4847 -87.0056 249° West 350 403 11,100 -1,056 Descending Chicago Center
Tue 17:04:14 42.4550 -87.1094 249° West 295 339 9,900 -1,152 Descending Chicago Center
Tue 17:05:16 42.4017 -87.2006 232° Southwest 290 334 8,700 -1,065 Descending Chicago Center
Tue 17:06:18 42.3225 -87.2242 192° South 295 339 7,700 -968 Descending Chicago Center
Tue 17:07:20 42.2439 -87.2481 193° South 286 329 6,700 -968 Descending Chicago Center
Tue 17:08:22 42.1700 -87.2708 193° South 276 318 5,700 -823 Descending Chicago Center
Tue 17:09:24 42.1081 -87.3231 212° Southwest 263 303 5,000 -484 Descending Chicago Center
Tue 17:10:26 42.0514 -87.3739 214° Southwest 252 290 4,700 -484 Descending Chicago Center
Tue 17:11:28 41.9847 -87.4397 216° Southwest 250 288 4,000 -339 Descending Chicago Center
Tue 17:12:30 41.9381 -87.4950 221° Southwest 237 273 4,000  Level Chicago Center
Tue 17:13:32 41.9108 -87.5639 242° Southwest 218 251 4,000  Level Chicago Center
Tue 17:14:35 41.9119 -87.6369 271° West 206 237 4,000  Level Chicago Center

Login

Don't have an account? Register now (free) for customized features, flight alerts, and more!